Time;durP1;ratioP1;P1;durP2;ratioP2;P2;SDS_P1;SDS_P2;PMS_P1;PMS_P2;Temp;Humidity;BMP_temperature;BMP_pressure;BME280_temperature;BME280_humidity;BME280_pressure;Samples;Min_cycle;Max_cycle;Signal;HPM_P1;HPM_P2
2024/03/28 00:02:08;;;;;;;4.68;2.92;;;;;;;9.22;100.00;98518.00;5065017;28;20079;-66
2024/03/28 00:04:55;;;;;;;5.25;3.20;;;;;;;9.17;100.00;98519.75;5059264;28;20051;-67
2024/03/28 00:07:42;;;;;;;5.00;3.30;;;;;;;9.15;100.00;98518.47;5077083;28;20044;-66
2024/03/28 00:10:29;;;;;;;6.40;3.25;;;;;;;9.17;100.00;98513.53;5076887;28;20105;-66
2024/03/28 00:13:17;;;;;;;6.47;2.92;;;;;;;9.15;100.00;98513.03;5069059;28;20047;-67
2024/03/28 00:16:04;;;;;;;6.22;3.08;;;;;;;9.13;100.00;98505.19;5081204;28;20039;-66
2024/03/28 00:18:51;;;;;;;5.97;3.30;;;;;;;9.11;100.00;98495.75;5069442;28;20514;-65
2024/03/28 00:21:38;;;;;;;5.43;3.10;;;;;;;9.11;100.00;98487.59;5096745;28;20177;-66
2024/03/28 00:24:25;;;;;;;8.93;3.60;;;;;;;9.14;100.00;98490.50;5081470;28;20544;-66
2024/03/28 00:27:13;;;;;;;5.95;3.10;;;;;;;9.14;100.00;98470.69;5076985;28;20449;-67
2024/03/28 00:30:00;;;;;;;4.60;2.90;;;;;;;9.12;100.00;98462.06;5050118;28;20075;-65
2024/03/28 00:32:50;;;;;;;6.13;2.90;;;;;;;9.09;100.00;98454.53;5077114;28;20078;-66
2024/03/28 00:35:45;;;;;;;5.20;3.20;;;;;;;9.07;100.00;98452.13;5082537;28;20044;-66
2024/03/28 00:38:32;;;;;;;4.55;3.00;;;;;;;9.09;100.00;98451.81;5082193;28;20050;-66
2024/03/28 00:41:18;;;;;;;5.97;3.20;;;;;;;9.09;100.00;98455.34;5057320;28;20093;-66
2024/03/28 00:44:05;;;;;;;4.47;2.80;;;;;;;9.11;100.00;98452.28;5090511;28;20047;-66
2024/03/28 00:46:52;;;;;;;5.32;3.20;;;;;;;9.14;100.00;98440.81;5063956;28;20071;-67
2024/03/28 00:49:39;;;;;;;5.50;3.00;;;;;;;9.12;100.00;98434.88;5094590;28;20043;-66
2024/03/28 00:52:26;;;;;;;5.85;3.08;;;;;;;9.07;100.00;98448.63;5097074;28;20451;-66
2024/03/28 00:55:14;;;;;;;5.45;3.05;;;;;;;9.05;100.00;98442.72;5096707;28;20100;-66
2024/03/28 00:58:00;;;;;;;5.07;3.00;;;;;;;9.05;100.00;98446.22;5110088;28;20124;-66
2024/03/28 01:00:48;;;;;;;6.20;3.10;;;;;;;9.08;100.00;98431.19;5081919;28;20078;-65
2024/03/28 01:03:35;;;;;;;5.18;3.10;;;;;;;9.06;100.00;98420.63;5107080;28;20077;-66
2024/03/28 01:06:23;;;;;;;5.47;2.90;;;;;;;9.06;100.00;98425.28;5090359;28;20456;-66
2024/03/28 01:09:10;;;;;;;4.38;2.90;;;;;;;9.11;100.00;98427.84;5090127;28;20052;-67
2024/03/28 01:11:57;;;;;;;8.07;2.85;;;;;;;9.11;100.00;98427.84;5093735;28;20043;-66
2024/03/28 01:14:44;;;;;;;6.20;2.72;;;;;;;9.13;100.00;98420.19;5094914;28;20480;-66
2024/03/28 01:17:31;;;;;;;7.70;3.05;;;;;;;9.10;100.00;98408.03;5082385;28;20093;-66
2024/03/28 01:20:18;;;;;;;5.97;3.22;;;;;;;9.08;100.00;98406.75;5066669;28;20131;-66
2024/03/28 01:23:05;;;;;;;3.88;2.63;;;;;;;9.07;100.00;98400.53;5061587;28;20076;-66
2024/03/28 01:25:52;;;;;;;4.43;2.40;;;;;;;9.06;100.00;98393.47;5051802;28;20071;-66
2024/03/28 01:28:39;;;;;;;3.65;2.67;;;;;;;9.04;100.00;98387.56;5078775;28;20048;-67
2024/03/28 01:31:26;;;;;;;4.18;2.60;;;;;;;9.01;100.00;98381.97;5058222;28;20048;-66
2024/03/28 01:34:13;;;;;;;4.93;2.75;;;;;;;9.00;100.00;98377.69;5097638;28;20503;-67
2024/03/28 01:36:59;;;;;;;8.15;2.60;;;;;;;9.01;100.00;98379.25;5080415;28;20071;-66
2024/03/28 01:39:50;;;;;;;4.70;2.75;;;;;;;9.02;100.00;98389.00;5066452;28;20044;-66
2024/03/28 01:42:37;;;;;;;4.53;2.80;;;;;;;9.01;100.00;98385.50;5082721;28;20044;-67
2024/03/28 01:45:24;;;;;;;5.07;3.00;;;;;;;9.00;100.00;98385.81;5098206;28;20047;-66
2024/03/28 01:48:11;;;;;;;5.03;2.80;;;;;;;8.96;100.00;98383.72;5087030;28;20075;-65
2024/03/28 01:50:58;;;;;;;7.63;2.90;;;;;;;8.89;100.00;98377.16;5066023;28;20070;-65
2024/03/28 01:53:46;;;;;;;3.85;2.60;;;;;;;8.82;100.00;98372.19;5080167;28;20463;-66
2024/03/28 01:56:34;;;;;;;3.22;2.40;;;;;;;8.81;100.00;98367.88;5098891;28;20504;-66
2024/03/28 01:59:21;;;;;;;5.25;2.30;;;;;;;8.79;100.00;98366.63;5082707;28;20070;-67
2024/03/28 02:02:08;;;;;;;3.60;2.30;;;;;;;8.81;100.00;98362.47;5079233;28;20128;-66
2024/03/28 02:04:55;;;;;;;6.20;2.50;;;;;;;8.88;100.00;98362.78;5092827;28;20500;-67
2024/03/28 02:07:42;;;;;;;5.20;2.70;;;;;;;8.90;100.00;98363.28;5066901;28;20082;-66
2024/03/28 02:10:30;;;;;;;4.90;2.40;;;;;;;8.92;100.00;98371.09;5066134;28;20560;-67
2024/03/28 02:13:17;;;;;;;5.90;2.50;;;;;;;8.94;100.00;98371.56;5073704;28;20066;-66
2024/03/28 02:16:04;;;;;;;2.95;2.38;;;;;;;8.92;100.00;98374.63;5035883;28;20506;-66
2024/03/28 02:18:58;;;;;;;4.47;2.60;;;;;;;8.90;100.00;98374.16;5064222;28;20048;-67
2024/03/28 02:21:48;;;;;;;3.45;2.65;;;;;;;8.83;100.00;98357.53;5063546;28;20052;-67
2024/03/28 02:24:36;;;;;;;4.88;2.40;;;;;;;8.80;100.00;98366.28;5077445;28;20056;-66
2024/03/28 02:27:23;;;;;;;4.53;2.60;;;;;;;8.70;100.00;98359.22;5074984;28;20074;-67
2024/03/28 02:30:11;;;;;;;5.30;2.90;;;;;;;8.69;100.00;98356.84;5073238;28;20067;-65
2024/03/28 02:32:58;;;;;;;4.20;2.53;;;;;;;8.71;100.00;98351.91;5045065;28;20512;-65
2024/03/28 02:35:45;;;;;;;4.60;2.60;;;;;;;8.73;100.00;98363.22;5058629;28;20060;-66
2024/03/28 02:38:33;;;;;;;4.90;2.55;;;;;;;8.71;100.00;98354.63;5051625;28;20056;-65
2024/03/28 02:41:23;;;;;;;4.90;2.70;;;;;;;8.69;100.00;98356.84;5055202;28;20076;-66
2024/03/28 02:44:10;;;;;;;3.28;2.45;;;;;;;8.69;100.00;98367.72;5046280;28;20072;-65
2024/03/28 02:46:57;;;;;;;4.32;2.58;;;;;;;8.72;100.00;98361.63;5045120;28;20122;-66
2024/03/28 02:49:44;;;;;;;4.90;2.60;;;;;;;8.71;100.00;98350.00;5038615;28;20048;-66
2024/03/28 02:52:31;;;;;;;4.68;2.50;;;;;;;8.69;100.00;98351.41;5059923;28;20071;-66
2024/03/28 02:55:18;;;;;;;4.20;2.50;;;;;;;8.67;100.00;98342.78;5078335;28;20488;-67
2024/03/28 02:58:05;;;;;;;3.72;2.15;;;;;;;8.64;100.00;98344.22;5079687;28;20494;-66
2024/03/28 03:00:53;;;;;;;4.95;2.35;;;;;;;8.65;100.00;98334.94;5052054;28;20072;-65
2024/03/28 03:03:39;;;;;;;5.03;3.10;;;;;;;8.67;100.00;98321.06;5046213;28;20059;-66
2024/03/28 03:06:28;;;;;;;4.68;2.50;;;;;;;8.68;100.00;98319.94;5069033;28;20083;-65
2024/03/28 03:09:15;;;;;;;5.70;2.65;;;;;;;8.70;100.00;98309.56;5065664;28;20107;-65
2024/03/28 03:12:02;;;;;;;2.95;2.20;;;;;;;8.58;100.00;98303.97;5070788;28;20464;-65
2024/03/28 03:14:50;;;;;;;4.93;2.35;;;;;;;8.56;100.00;98298.06;5084804;28;20047;-65
2024/03/28 03:17:37;;;;;;;3.30;2.35;;;;;;;8.58;100.00;98293.91;5094878;28;20075;-65
2024/03/28 03:20:24;;;;;;;5.40;2.60;;;;;;;8.57;100.00;98280.66;5084703;28;20048;-66
2024/03/28 03:23:11;;;;;;;4.88;2.35;;;;;;;8.56;100.00;98279.06;5083942;28;20047;-67
2024/03/28 03:26:11;;;;;;;4.47;2.65;;;;;;;8.53;100.00;98266.91;5084048;28;20126;-67
2024/03/28 03:35:10;;;;;;;3.10;2.40;;;;;;;8.37;100.00;98246.75;5099972;28;20277;-66
2024/03/28 03:37:57;;;;;;;5.00;2.42;;;;;;;8.31;100.00;98243.41;5064193;28;20413;-67
2024/03/28 03:40:44;;;;;;;3.42;2.38;;;;;;;8.33;100.00;98230.31;5085746;28;20052;-66
2024/03/28 03:43:31;;;;;;;3.92;2.33;;;;;;;8.25;100.00;98217.53;5073259;27;20051;-66
2024/03/28 03:46:19;;;;;;;6.28;2.40;;;;;;;8.15;100.00;98217.84;5119891;27;20047;-68
2024/03/28 03:49:06;;;;;;;7.25;2.70;;;;;;;8.14;100.00;98205.41;5056156;28;20075;-66
2024/03/28 03:51:53;;;;;;;4.47;2.65;;;;;;;8.08;100.00;98210.97;5082135;28;20480;-66
2024/03/28 03:54:41;;;;;;;4.20;2.70;;;;;;;8.07;100.00;98216.69;5097802;28;20128;-67
2024/03/28 03:57:28;;;;;;;4.03;2.50;;;;;;;8.09;100.00;98215.28;5077093;28;20106;-67
2024/03/28 04:00:15;;;;;;;7.13;2.88;;;;;;;8.13;100.00;98218.16;5093038;28;20100;-66
2024/03/28 04:03:02;;;;;;;4.20;2.67;;;;;;;8.13;100.00;98220.06;5098369;28;20047;-66
2024/03/28 04:05:50;;;;;;;3.13;2.45;;;;;;;8.18;100.00;98222.63;5076339;28;20113;-66
2024/03/28 04:08:37;;;;;;;7.22;2.83;;;;;;;8.25;100.00;98220.22;5083704;28;20335;-66
2024/03/28 04:11:24;;;;;;;4.70;2.72;;;;;;;8.19;100.00;98224.22;5049379;28;20044;-66
2024/03/28 04:14:11;;;;;;;4.47;2.67;;;;;;;8.12;100.00;98213.84;5051904;28;20040;-67
2024/03/28 04:16:58;;;;;;;4.10;2.67;;;;;;;8.07;100.00;98212.06;5069431;28;20125;-66
2024/03/28 04:19:45;;;;;;;4.88;2.67;;;;;;;8.11;100.00;98215.75;5080767;28;20507;-66
2024/03/28 04:22:32;;;;;;;4.50;2.63;;;;;;;8.09;100.00;98204.41;5061210;28;20055;-67
2024/03/28 04:25:19;;;;;;;7.57;2.80;;;;;;;8.08;100.00;98197.41;5083166;28;20051;-65
2024/03/28 04:28:06;;;;;;;7.07;3.30;;;;;;;8.09;100.00;98188.16;5098957;28;20063;-66
2024/03/28 04:30:53;;;;;;;6.30;2.55;;;;;;;8.05;100.00;98189.88;5088993;28;20597;-66
2024/03/28 04:33:40;;;;;;;7.93;3.13;;;;;;;8.08;100.00;98183.84;5072424;28;20048;-66
2024/03/28 04:36:27;;;;;;;6.68;3.00;;;;;;;8.00;100.00;98172.97;5096224;28;20534;-66
2024/03/28 04:39:14;;;;;;;7.55;2.92;;;;;;;7.93;100.00;98173.44;5096006;28;20071;-67
2024/03/28 04:42:01;;;;;;;4.80;2.80;;;;;;;7.88;100.00;98165.47;5089059;28;20094;-66
2024/03/28 04:44:48;;;;;;;6.22;3.08;;;;;;;7.83;100.00;98173.75;5095194;28;20384;-66
2024/03/28 04:47:37;;;;;;;5.80;2.97;;;;;;;7.75;100.00;98161.75;5076559;28;20044;-66
2024/03/28 04:50:24;;;;;;;7.35;3.10;;;;;;;7.73;100.00;98161.28;5080280;28;20448;-66
2024/03/28 04:53:11;;;;;;;7.10;3.53;;;;;;;7.66;100.00;98159.03;5095648;28;20411;-66
2024/03/28 04:55:58;;;;;;;6.10;3.50;;;;;;;7.64;100.00;98155.81;5080712;28;20071;-66
2024/03/28 04:58:45;;;;;;;5.60;3.15;;;;;;;7.63;100.00;98158.88;5096222;28;20105;-67
2024/03/28 05:01:32;;;;;;;5.53;3.15;;;;;;;7.59;100.00;98158.69;5093393;28;20036;-67
2024/03/28 05:04:19;;;;;;;5.95;3.30;;;;;;;7.64;100.00;98165.88;5082841;28;20051;-66
2024/03/28 05:07:06;;;;;;;5.38;3.13;;;;;;;7.74;100.00;98164.78;5073834;28;20052;-66
2024/03/28 05:09:53;;;;;;;6.75;3.40;;;;;;;7.77;100.00;98153.31;5101125;27;20047;-67
2024/03/28 05:12:40;;;;;;;6.32;2.85;;;;;;;7.81;100.00;98149.66;5079862;28;20073;-66
2024/03/28 05:15:27;;;;;;;8.93;3.42;;;;;;;7.86;100.00;98141.38;5093930;28;20419;-66
2024/03/28 05:18:14;;;;;;;6.55;3.20;;;;;;;7.88;100.00;98143.78;5081625;28;20500;-67
2024/03/28 05:21:01;;;;;;;5.22;3.33;;;;;;;7.86;100.00;98135.16;5085405;28;20150;-66
2024/03/28 05:23:48;;;;;;;4.82;3.20;;;;;;;7.88;100.00;98143.78;5092888;28;20058;-67
2024/03/28 05:26:35;;;;;;;5.00;3.15;;;;;;;7.92;100.00;98135.81;5090760;28;20067;-66
2024/03/28 05:29:23;;;;;;;6.32;3.60;;;;;;;7.96;100.00;98140.28;5085275;28;20094;-66
2024/03/28 05:32:10;;;;;;;5.45;3.40;;;;;;;7.98;100.00;98132.63;5082233;28;20117;-66
2024/03/28 05:34:57;;;;;;;5.07;3.22;;;;;;;7.99;100.00;98128.00;5087660;28;20542;-66
2024/03/28 05:37:44;;;;;;;5.13;3.22;;;;;;;8.02;100.00;98121.94;5075981;28;20550;-66
2024/03/28 05:40:31;;;;;;;4.35;2.95;;;;;;;8.02;100.00;98157.19;5094321;28;20040;-67
2024/03/28 05:43:18;;;;;;;4.80;3.22;;;;;;;8.04;100.00;98160.41;5062836;28;20074;-67
2024/03/28 05:46:05;;;;;;;5.28;3.45;;;;;;;8.05;100.00;98165.47;5088569;28;20063;-66
2024/03/28 05:48:52;;;;;;;5.95;3.35;;;;;;;8.04;100.00;98172.03;5065472;28;20099;-66
2024/03/28 05:51:39;;;;;;;5.80;3.50;;;;;;;8.05;100.00;98176.31;5069312;28;20492;-66
2024/03/28 05:54:26;;;;;;;5.00;3.17;;;;;;;8.03;100.00;98184.00;5080453;28;20469;-66
2024/03/28 05:57:13;;;;;;;5.95;3.30;;;;;;;7.98;100.00;98186.84;5075983;28;20075;-67
2024/03/28 06:00:00;;;;;;;4.97;3.08;;;;;;;8.00;100.00;98181.13;5082169;28;20039;-66
2024/03/28 06:02:47;;;;;;;5.13;3.50;;;;;;;8.00;100.00;98190.03;5096192;28;20492;-66
2024/03/28 06:05:34;;;;;;;6.18;3.42;;;;;;;8.00;100.00;98184.63;5059671;28;20110;-67
2024/03/28 06:08:21;;;;;;;5.20;3.20;;;;;;;8.02;100.00;98193.25;5045143;28;20048;-67
2024/03/28 06:11:08;;;;;;;5.95;3.17;;;;;;;8.01;100.00;98186.22;5075938;28;20048;-67
2024/03/28 06:14:07;;;;;;;6.82;3.50;;;;;;;8.04;100.00;98190.22;5051127;28;20492;-65
2024/03/28 06:16:56;;;;;;;5.65;3.15;;;;;;;8.03;100.00;98184.00;5066970;28;20496;-66
2024/03/28 06:19:43;;;;;;;4.78;3.30;;;;;;;8.05;100.00;98179.03;5066540;28;20044;-67
2024/03/28 06:22:30;;;;;;;5.40;3.05;;;;;;;8.07;100.00;98179.53;5069342;28;20102;-66
2024/03/28 06:25:17;;;;;;;4.28;3.10;;;;;;;8.10;100.00;98165.34;5090920;28;20148;-67
2024/03/28 06:28:08;;;;;;;5.13;3.00;;;;;;;8.12;100.00;98178.59;5079423;28;20511;-67
2024/03/28 06:30:56;;;;;;;6.38;3.40;;;;;;;8.14;100.00;98173.66;5086798;28;20052;-68
2024/03/28 06:33:49;;;;;;;7.18;3.70;;;;;;;8.13;100.00;98177.47;5067981;28;20044;-66
2024/03/28 06:36:36;;;;;;;8.60;3.58;;;;;;;8.14;100.00;98167.44;5058639;28;20076;-66
2024/03/28 06:39:23;;;;;;;5.80;3.50;;;;;;;8.14;100.00;98164.72;5065291;28;20043;-66
2024/03/28 06:42:12;;;;;;;6.22;3.47;;;;;;;8.07;100.00;98168.69;5066258;28;20400;-66
2024/03/28 06:45:05;;;;;;;7.93;3.53;;;;;;;8.14;100.00;98165.50;5094905;28;20036;-65
2024/03/28 06:47:52;;;;;;;4.93;3.22;;;;;;;8.19;100.00;98159.94;4379097;28;10000752;-66
2024/03/28 06:50:39;;;;;;;6.32;3.40;;;;;;;8.22;100.00;98159.28;5085658;28;20048;-66
2024/03/28 06:53:26;;;;;;;6.88;3.40;;;;;;;8.23;100.00;98157.38;5061669;28;20131;-65
2024/03/28 06:56:13;;;;;;;6.18;3.28;;;;;;;8.25;100.00;98157.84;5085469;28;20055;-66
2024/03/28 06:59:00;;;;;;;4.72;2.95;;;;;;;8.29;100.00;98154.19;5077213;28;20518;-67
2024/03/28 07:01:47;;;;;;;8.68;3.47;;;;;;;8.31;100.00;98159.31;5061950;28;20047;-67
2024/03/28 07:04:34;;;;;;;6.47;3.08;;;;;;;8.31;100.00;98162.00;5078113;28;20424;-66
2024/03/28 07:07:21;;;;;;;6.85;2.95;;;;;;;8.30;100.00;98165.84;5053896;28;20120;-66
2024/03/28 07:10:08;;;;;;;5.57;2.97;;;;;;;8.26;100.00;98164.88;5091122;28;20051;-66
2024/03/28 07:12:56;;;;;;;5.00;3.10;;;;;;;8.27;100.00;98159.16;5070361;28;20123;-67
2024/03/28 07:15:43;;;;;;;6.45;3.20;;;;;;;8.28;100.00;98174.28;5095235;28;20052;-67
2024/03/28 07:18:30;;;;;;;4.95;2.80;;;;;;;8.31;100.00;98172.88;5095580;28;20047;-66
2024/03/28 07:21:17;;;;;;;6.80;2.78;;;;;;;8.32;100.00;98177.16;5092845;28;20100;-66
2024/03/28 07:24:05;;;;;;;5.28;2.80;;;;;;;8.26;100.00;98178.44;5061743;28;20133;-66
2024/03/28 07:26:52;;;;;;;7.68;2.90;;;;;;;8.24;100.00;98172.53;5060455;28;20135;-66
2024/03/28 07:29:39;;;;;;;3.53;2.80;;;;;;;8.30;100.00;98188.34;5074127;28;20135;-66
2024/03/28 07:32:26;;;;;;;4.72;2.70;;;;;;;8.33;100.00;98182.28;5055649;28;20078;-66
2024/03/28 07:35:13;;;;;;;4.32;2.75;;;;;;;8.34;100.00;98188.50;5073735;28;20504;-66
2024/03/28 07:38:00;;;;;;;3.83;2.60;;;;;;;8.36;100.00;98188.97;5069700;28;20125;-66
2024/03/28 07:40:50;;;;;;;4.03;2.35;;;;;;;8.46;100.00;98185.19;5065658;28;20075;-66
2024/03/28 07:43:37;;;;;;;7.05;2.90;;;;;;;8.46;100.00;98185.97;5094328;28;20062;-67
2024/03/28 07:46:24;;;;;;;4.53;2.92;;;;;;;8.41;100.00;98191.56;5052973;28;20047;-66
2024/03/28 07:49:11;;;;;;;4.13;2.42;;;;;;;8.43;100.00;98197.47;5092652;27;20395;-67
2024/03/28 07:51:59;;;;;;;4.28;2.55;;;;;;;8.35;100.00;98195.53;5093897;28;20070;-67
2024/03/28 07:54:46;;;;;;;4.32;2.67;;;;;;;8.29;100.00;98202.22;5050276;28;20097;-66
2024/03/28 07:57:34;;;;;;;5.80;3.10;;;;;;;8.29;100.00;98194.09;5051275;28;20040;-68
2024/03/28 08:00:21;;;;;;;5.30;2.70;;;;;;;8.30;100.00;98203.84;5036130;28;20511;-67
2024/03/28 08:03:09;;;;;;;7.20;2.92;;;;;;;8.31;100.00;98198.06;5075912;28;20044;-67
2024/03/28 08:05:57;;;;;;;13.48;4.68;;;;;;;8.36;100.00;98202.53;5081355;28;20063;-68
2024/03/28 08:08:44;;;;;;;9.88;3.60;;;;;;;8.36;100.00;98210.69;5101259;27;20040;-67
2024/03/28 08:11:31;;;;;;;7.78;3.33;;;;;;;8.36;100.00;98202.53;5075266;27;20047;-66
2024/03/28 08:14:18;;;;;;;10.13;3.67;;;;;;;8.42;100.00;98200.50;5087748;27;20031;-67
2024/03/28 08:17:07;;;;;;;11.30;4.35;;;;;;;8.49;100.00;98198.94;5066973;27;20084;-66
2024/03/28 08:19:54;;;;;;;7.35;3.53;;;;;;;8.42;100.00;98208.63;5115219;27;20436;-66
2024/03/28 08:22:44;;;;;;;4.65;2.63;;;;;;;8.32;100.00;98204.28;5069908;28;20055;-68
2024/03/28 08:25:32;;;;;;;4.15;2.88;;;;;;;8.23;100.00;98206.22;5071229;28;20075;-68
2024/03/28 08:28:19;;;;;;;5.65;2.80;;;;;;;8.22;100.00;98207.31;5105556;27;20043;-67
2024/03/28 08:31:06;;;;;;;3.80;2.40;;;;;;;8.25;100.00;98209.38;5092395;28;20036;-68
2024/03/28 08:33:54;;;;;;;3.10;2.40;;;;;;;8.25;100.00;98209.38;5080385;28;20067;-68
2024/03/28 08:36:41;;;;;;;7.72;2.58;;;;;;;8.26;100.00;98200.16;5097373;28;20047;-67
2024/03/28 08:39:29;;;;;;;3.15;2.20;;;;;;;8.23;100.00;98209.72;5067693;27;20472;-67
2024/03/28 08:42:17;;;;;;;6.20;3.03;;;;;;;8.19;100.00;98222.31;5079313;28;20068;-67
2024/03/28 08:45:08;;;;;;;4.13;2.70;;;;;;;8.20;100.00;98223.09;5097307;28;20039;-68
2024/03/28 08:47:57;;;;;;;6.25;2.50;;;;;;;8.23;100.00;98231.41;5069897;28;20368;-67
2024/03/28 08:50:44;;;;;;;4.55;2.40;;;;;;;8.26;100.00;98233.50;5081923;28;20498;-68
2024/03/28 08:53:31;;;;;;;8.23;2.67;;;;;;;8.26;100.00;98230.78;5092588;28;20051;-69
2024/03/28 08:56:20;;;;;;;4.32;2.30;;;;;;;8.29;100.00;98241.00;5097225;28;20114;-68
2024/03/28 08:59:07;;;;;;;4.03;2.00;;;;;;;8.33;100.00;98241.16;5083113;28;20441;-67
2024/03/28 09:01:54;;;;;;;3.08;2.10;;;;;;;8.32;100.00;98234.13;5054365;28;20043;-68
2024/03/28 09:04:41;;;;;;;5.80;2.30;;;;;;;8.32;100.00;98244.97;5076146;28;20064;-68
2024/03/28 09:07:28;;;;;;;4.55;2.15;;;;;;;8.33;100.00;98243.88;5075126;28;20113;-68
2024/03/28 09:10:16;;;;;;;5.38;2.00;;;;;;;8.35;100.00;98246.28;5068939;28;20043;-68
2024/03/28 09:13:03;;;;;;;3.75;2.13;;;;;;;8.38;100.00;98249.16;5066764;28;20067;-68
2024/03/28 09:15:50;;;;;;;2.63;1.80;;;;;;;8.37;100.00;98249.47;5072160;28;20040;-68
2024/03/28 09:18:39;;;;;;;1.90;1.70;;;;;;;8.39;100.00;98255.38;5076614;28;20047;-68
2024/03/28 09:21:26;;;;;;;5.07;2.28;;;;;;;8.40;100.00;98267.88;5078192;28;20071;-68
2024/03/28 09:24:13;;;;;;;4.45;2.10;;;;;;;8.40;100.00;98268.66;5079375;28;20036;-69
2024/03/28 09:27:00;;;;;;;4.47;2.20;;;;;;;8.41;100.00;98261.31;5096694;28;20127;-68
2024/03/28 09:29:49;;;;;;;3.40;1.85;;;;;;;8.42;100.00;98268.34;5078723;28;20044;-67
2024/03/28 09:32:37;;;;;;;5.95;1.83;;;;;;;8.45;100.00;98271.22;5083232;28;20071;-68
2024/03/28 09:35:25;;;;;;;4.40;1.70;;;;;;;8.48;100.00;98277.94;5094951;28;20042;-67
2024/03/28 09:38:12;;;;;;;4.53;2.35;;;;;;;8.50;100.00;98284.63;5087321;28;20086;-68
2024/03/28 09:41:00;;;;;;;2.72;1.95;;;;;;;8.50;100.00;98284.63;5081610;28;20065;-69
2024/03/28 09:43:49;;;;;;;3.90;2.22;;;;;;;8.52;100.00;98287.84;5078031;28;20051;-67
2024/03/28 09:46:36;;;;;;;3.55;1.70;;;;;;;8.51;100.00;98294.41;5065140;28;20066;-66
2024/03/28 09:49:25;;;;;;;2.83;2.00;;;;;;;8.49;100.00;98304.75;5080129;27;20075;-66
2024/03/28 09:52:14;;;;;;;1.77;1.50;;;;;;;8.50;100.00;98295.50;5088927;28;20136;-67
2024/03/28 09:55:02;;;;;;;2.75;1.67;;;;;;;8.52;100.00;98301.41;5072130;28;20043;-67
2024/03/28 09:57:49;;;;;;;1.35;1.25;;;;;;;8.56;100.00;98311.63;5026666;28;20119;-67
2024/03/28 10:00:36;;;;;;;3.42;1.65;;;;;;;8.54;100.00;98322.81;5056860;28;20048;-68
2024/03/28 10:03:33;;;;;;;2.08;1.67;;;;;;;8.55;100.00;98324.41;5098575;28;20051;-67
2024/03/28 10:06:20;;;;;;;1.50;1.33;;;;;;;8.49;100.00;98337.31;5099319;28;20461;-68
2024/03/28 10:09:07;;;;;;;4.03;1.80;;;;;;;8.45;100.00;98341.78;5084335;27;20108;-67
2024/03/28 10:11:54;;;;;;;5.70;1.50;;;;;;;8.41;100.00;98340.81;5070662;28;20114;-66
2024/03/28 10:14:52;;;;;;;6.80;2.55;;;;;;;8.50;100.00;98347.06;5052769;28;20048;-67
2024/03/28 10:17:39;;;;;;;2.80;1.70;;;;;;;8.47;100.00;98355.84;5085767;28;20051;-67
2024/03/28 10:20:27;;;;;;;3.10;1.40;;;;;;;8.46;100.00;98362.34;5066292;28;20420;-68
2024/03/28 10:23:14;;;;;;;1.65;1.20;;;;;;;8.41;100.00;98370.66;5088554;28;20044;-67
2024/03/28 10:26:02;;;;;;;2.67;1.70;;;;;;;8.40;100.00;98382.63;5065269;28;20532;-67
2024/03/28 10:28:49;;;;;;;2.47;1.50;;;;;;;8.38;100.00;98387.53;5080996;28;20040;-66
2024/03/28 10:31:36;;;;;;;2.00;1.50;;;;;;;8.38;100.00;98390.25;5075207;28;20469;-67
2024/03/28 10:34:23;;;;;;;3.88;1.88;;;;;;;8.39;100.00;98391.84;5087963;28;20429;-68
2024/03/28 10:37:11;;;;;;;3.90;1.85;;;;;;;8.44;100.00;98407.22;5084626;28;20120;-67
2024/03/28 10:39:58;;;;;;;3.70;1.70;;;;;;;8.41;100.00;98413.25;5064975;28;20048;-67
2024/03/28 10:42:46;;;;;;;3.38;1.35;;;;;;;8.44;100.00;98426.19;5078399;28;20063;-66
2024/03/28 10:45:38;;;;;;;8.10;2.30;;;;;;;8.39;100.00;98437.97;5054066;28;20062;-68
2024/03/28 10:48:26;;;;;;;6.28;2.22;;;;;;;8.36;100.00;98433.16;5088802;28;20036;-66
2024/03/28 10:51:18;;;;;;;5.28;2.10;;;;;;;8.35;100.00;98431.56;5071938;28;20036;-67
2024/03/28 10:54:15;;;;;;;3.80;1.95;;;;;;;8.34;100.00;98432.66;5071051;28;20077;-68
2024/03/28 10:57:06;;;;;;;4.63;1.92;;;;;;;8.39;100.00;98442.59;5071063;28;20044;-68
2024/03/28 10:59:54;;;;;;;7.50;3.15;;;;;;;8.46;100.00;98446.47;5084418;28;20048;-67
2024/03/28 11:02:41;;;;;;;6.80;2.65;;;;;;;8.62;100.00;98454.22;5063245;28;20043;-69
2024/03/28 11:05:29;;;;;;;3.72;2.20;;;;;;;8.70;100.00;98461.59;5089865;28;20097;-69
2024/03/28 11:08:16;;;;;;;7.30;2.78;;;;;;;8.76;100.00;98463.06;5081433;28;20502;-69
2024/03/28 11:11:04;;;;;;;8.73;3.20;;;;;;;8.87;100.00;98472.50;5065828;28;20047;-69
2024/03/28 11:13:52;;;;;;;6.13;2.70;;;;;;;8.87;100.00;98480.66;5069541;28;20085;-69
2024/03/28 11:16:39;;;;;;;6.82;2.78;;;;;;;8.86;100.00;98486.41;5085445;28;20079;-68
2024/03/28 11:19:26;;;;;;;6.28;2.53;;;;;;;8.87;100.00;98488.00;5082160;28;20559;-69
2024/03/28 11:22:22;;;;;;;7.95;2.40;;;;;;;8.92;100.00;98485.97;4380771;28;10000790;-70
2024/03/28 11:25:28;;;;;;;;;;;;;;;8.98;100.00;98486.63;5080409;28;20336;-69
2024/03/28 11:28:15;;;;;;;6.55;3.30;;;;;;;9.02;100.00;98484.88;5077010;28;19926;-69
2024/03/28 11:31:02;;;;;;;6.47;2.60;;;;;;;9.06;100.00;98490.47;5075011;28;20064;-69
2024/03/28 11:33:58;;;;;;;9.63;2.70;;;;;;;9.11;100.00;98496.53;5067095;28;20585;-67
2024/03/28 11:36:53;;;;;;;5.68;2.53;;;;;;;9.20;100.00;98496.59;5088670;28;20093;-69
2024/03/28 11:39:40;;;;;;;8.35;2.60;;;;;;;9.24;100.00;98489.41;5089023;28;20048;-69
2024/03/28 11:42:27;;;;;;;5.43;2.33;;;;;;;9.24;100.00;98503.00;5080878;28;20075;-68
2024/03/28 11:45:14;;;;;;;6.57;2.40;;;;;;;9.28;100.00;98506.66;5060278;28;20048;-68
2024/03/28 11:48:02;;;;;;;6.10;2.50;;;;;;;9.43;100.00;98510.03;5084648;28;20090;-68
2024/03/28 11:50:50;;;;;;;6.00;2.03;;;;;;;9.47;100.00;98519.19;5078069;28;20609;-68
2024/03/28 11:53:39;;;;;;;6.35;2.15;;;;;;;9.59;100.00;98513.91;5066794;28;20503;-68
2024/03/28 11:56:27;;;;;;;6.15;2.00;;;;;;;9.69;100.00;98518.25;5065236;28;20400;-68
2024/03/28 11:59:21;;;;;;;10.15;4.40;;;;;;;9.92;100.00;98516.19;5079761;27;20502;-68
2024/03/28 12:02:08;;;;;;;5.72;2.70;;;;;;;9.92;100.00;98518.91;5061646;28;20040;-68
2024/03/28 12:05:04;;;;;;;10.35;4.25;;;;;;;10.13;100.00;98517.13;5034229;28;20109;-69
2024/03/28 12:07:51;;;;;;;8.07;2.63;;;;;;;10.06;100.00;98529.63;5060783;28;20063;-68
2024/03/28 12:10:38;;;;;;;7.32;2.42;;;;;;;9.98;100.00;98525.75;5082234;28;20044;-68
2024/03/28 12:13:25;;;;;;;6.55;2.08;;;;;;;9.96;100.00;98528.03;5093802;28;20035;-68
2024/03/28 12:16:15;;;;;;;6.35;1.88;;;;;;;9.98;100.00;98520.31;5090639;28;20038;-68
2024/03/28 12:19:07;;;;;;;4.45;1.73;;;;;;;10.01;100.00;98530.59;5044916;28;20089;-68
2024/03/28 12:21:54;;;;;;;4.25;1.80;;;;;;;10.00;98.06;98534.41;5056204;28;20137;-69
2024/03/28 12:24:44;;;;;;;4.88;1.55;;;;;;;9.99;97.65;98538.25;5067513;28;20043;-69
2024/03/28 12:27:31;;;;;;;4.65;2.17;;;;;;;9.99;97.41;98538.25;5093471;28;20035;-68
2024/03/28 12:30:18;;;;;;;10.63;5.32;;;;;;;10.10;100.00;98555.06;5092516;28;20039;-69
2024/03/28 12:33:05;;;;;;;2.38;1.73;;;;;;;10.05;95.76;98547.06;5074567;28;20127;-68
2024/03/28 12:35:55;;;;;;;5.50;2.90;;;;;;;10.08;94.84;98549.94;5072582;28;20044;-69
2024/03/28 12:38:49;;;;;;;2.63;1.60;;;;;;;10.18;91.97;98557.78;5074127;28;20110;-69
2024/03/28 12:41:39;;;;;;;4.30;1.55;;;;;;;10.15;87.47;98553.00;5076969;28;20039;-69
2024/03/28 12:44:31;;;;;;;5.55;1.92;;;;;;;10.26;87.47;98558.09;5062369;28;20044;-69
2024/03/28 12:47:18;;;;;;;9.88;3.58;;;;;;;10.42;97.35;98551.06;5067385;28;20039;-68
2024/03/28 12:50:06;;;;;;;7.68;2.95;;;;;;;10.61;99.44;98554.22;5081659;28;20112;-68
2024/03/28 12:52:53;;;;;;;14.35;8.07;;;;;;;10.76;100.00;98560.28;5080043;27;20632;-68
2024/03/28 12:55:40;;;;;;;8.70;3.80;;;;;;;10.81;91.11;98562.84;5092888;28;20054;-68
2024/03/28 12:58:27;;;;;;;9.07;3.00;;;;;;;10.77;86.26;98564.59;5078745;28;20502;-68
2024/03/28 13:01:14;;;;;;;14.13;5.82;;;;;;;10.84;97.71;98582.03;5077379;28;20108;-68
2024/03/28 13:04:02;;;;;;;10.13;4.00;;;;;;;10.89;97.17;98575.63;5063428;28;20108;-68
2024/03/28 13:06:49;;;;;;;9.32;5.22;;;;;;;10.75;92.60;98585.91;5069636;28;20060;-69
2024/03/28 13:09:36;;;;;;;5.95;2.75;;;;;;;10.69;85.91;98593.47;5085925;28;20046;-69
2024/03/28 13:12:23;;;;;;;4.68;2.35;;;;;;;10.66;87.92;98605.81;5071766;28;20486;-70
2024/03/28 13:15:10;;;;;;;6.07;2.30;;;;;;;10.65;88.93;98603.38;5039226;28;20052;-68
2024/03/28 13:17:57;;;;;;;3.63;1.60;;;;;;;10.63;89.35;98605.63;5053217;28;20473;-70